Time;durP1;ratioP1;P1;durP2;ratioP2;P2;SDS_P1;SDS_P2;PMS_P1;PMS_P2;Temp;Humidity;BMP_temperature;BMP_pressure;BME280_temperature;BME280_humidity;BME280_pressure;Samples;Min_cycle;Max_cycle;Signal;HPM_P1;HPM_P2
2022/12/15 00:38:40;;;;;;;28.60;22.13;;;;;;;2.19;84.22;93856.81;4219128;28;20055;-62
2022/12/15 00:40:42;;;;;;;30.73;22.60;;;;;;;2.43;83.79;93847.00;4209828;28;20193;-59
2022/12/15 00:42:43;;;;;;;31.90;22.83;;;;;;;2.63;82.75;93836.72;4216166;28;20052;-57
2022/12/15 00:44:50;;;;;;;29.15;21.45;;;;;;;2.81;81.97;93836.91;4214875;28;20052;-58
2022/12/15 00:46:54;;;;;;;31.63;22.48;;;;;;;2.90;81.20;93812.81;4195396;28;20611;-56
2022/12/15 00:48:56;;;;;;;27.27;19.83;;;;;;;3.04;80.83;93814.19;4200534;28;20518;-57
2022/12/15 00:50:58;;;;;;;28.90;20.63;;;;;;;3.18;80.26;93810.38;4210668;28;20512;-58
2022/12/15 01:21:07;;;;;;;24.90;19.48;;;;;;;3.66;78.01;93770.69;4201376;28;20132;-60
2022/12/15 01:23:08;;;;;;;24.58;17.10;;;;;;;3.73;78.16;93758.00;4227114;28;20064;-55
2022/12/15 01:25:11;;;;;;;22.35;16.98;;;;;;;3.74;77.41;93754.44;4228746;28;20265;-58
2022/12/15 01:27:12;;;;;;;24.60;16.77;;;;;;;3.69;77.73;93758.25;4219184;28;20091;-57
2022/12/15 01:29:14;;;;;;;22.00;16.73;;;;;;;3.65;77.39;93751.72;4212597;28;20135;-59
2022/12/15 01:31:16;;;;;;;21.80;15.57;;;;;;;3.64;77.67;93765.63;4200053;28;20083;-58
2022/12/15 01:33:19;;;;;;;21.80;16.27;;;;;;;3.69;77.80;93778.16;4205266;28;20060;-59
2022/12/15 01:35:21;;;;;;;23.23;17.38;;;;;;;3.73;77.66;93784.69;4186556;28;20111;-57
2022/12/15 01:37:22;;;;;;;22.02;16.38;;;;;;;3.76;77.63;93784.41;4199774;28;20461;-59
2022/12/15 01:39:24;;;;;;;22.92;15.45;;;;;;;3.77;77.21;93787.84;4221137;28;20476;-59
2022/12/15 01:41:26;;;;;;;25.15;16.70;;;;;;;3.82;77.39;93767.50;4211706;28;20116;-54
2022/12/15 01:43:33;;;;;;;23.25;15.73;;;;;;;3.80;77.32;93756.47;4215478;28;20063;-56
2022/12/15 01:45:47;;;;;;;21.30;16.00;;;;;;;3.83;77.81;93749.22;4222129;28;20060;-60
2022/12/15 01:47:55;;;;;;;20.73;15.30;;;;;;;3.87;77.21;93771.31;4215252;28;20056;-57
2022/12/15 01:49:57;;;;;;;19.80;14.55;;;;;;;3.85;77.19;93762.03;4182706;28;20468;-57
2022/12/15 01:52:01;;;;;;;21.95;14.82;;;;;;;3.80;77.46;93754.69;4227377;28;20353;-56
2022/12/15 01:54:22;;;;;;;20.55;14.20;;;;;;;3.75;77.49;93750.91;4197392;28;20382;-57
2022/12/15 01:56:25;;;;;;;16.15;12.57;;;;;;;3.76;77.62;93731.78;4225414;28;20583;-58
2022/12/15 01:58:27;;;;;;;17.75;12.55;;;;;;;3.78;77.30;93722.09;4206741;28;20597;-57
2022/12/15 02:00:29;;;;;;;19.13;12.80;;;;;;;3.85;77.38;93711.03;4224344;28;20051;-59
2022/12/15 02:02:32;;;;;;;15.95;11.43;;;;;;;3.86;77.33;93717.84;4217770;28;20047;-56
2022/12/15 02:04:40;;;;;;;14.25;10.77;;;;;;;3.79;77.37;93709.00;4198678;28;20056;-55
2022/12/15 02:06:42;;;;;;;14.45;10.45;;;;;;;3.78;77.92;93702.19;4226673;28;20052;-59
2022/12/15 02:08:46;;;;;;;11.80;9.38;;;;;;;3.84;77.21;93695.63;4212659;28;20125;-58
2022/12/15 02:11:06;;;;;;;13.15;9.55;;;;;;;3.85;77.52;93716.22;4215945;28;20059;-58
2022/12/15 02:13:16;;;;;;;12.23;9.38;;;;;;;3.81;76.64;93722.66;4192642;28;20160;-58
2022/12/15 02:15:23;;;;;;;11.00;9.07;;;;;;;3.86;77.10;93712.66;4194053;28;20067;-58
2022/12/15 02:18:02;;;;;;;12.80;9.60;;;;;;;3.77;76.65;93681.63;4194719;28;20048;-54
2022/12/15 02:20:13;;;;;;;11.75;9.00;;;;;;;3.73;77.94;93685.47;4214498;28;20048;-57
2022/12/15 02:22:17;;;;;;;11.70;9.10;;;;;;;3.81;77.44;93688.16;4211172;28;20394;-57
2022/12/15 02:24:31;;;;;;;11.48;8.77;;;;;;;3.86;77.14;93671.22;4210981;28;20068;-59
2022/12/15 02:26:50;;;;;;;10.48;8.05;;;;;;;3.82;76.68;93671.63;4199446;28;20093;-58
2022/12/15 02:29:12;;;;;;;9.60;7.72;;;;;;;3.52;77.49;93677.91;4194439;28;20168;-54
2022/12/15 02:32:07;;;;;;;9.85;7.88;;;;;;;3.27;78.08;93680.97;4204337;28;20060;-57
2022/12/15 02:34:35;;;;;;;9.23;7.45;;;;;;;3.14;79.02;93701.16;4155542;28;20137;-56
2022/12/15 02:36:42;;;;;;;13.35;7.95;;;;;;;3.21;79.52;93704.81;4184626;28;20502;-60
2022/12/15 02:38:44;;;;;;;10.77;8.25;;;;;;;2.95;79.88;93704.56;4218943;27;20138;-58
2022/12/15 02:40:46;;;;;;;11.30;8.43;;;;;;;2.97;80.11;93694.91;4208395;28;20139;-58
2022/12/15 02:42:51;;;;;;;12.00;9.48;;;;;;;2.92;80.23;93686.72;4217126;28;20048;-59
2022/12/15 02:45:00;;;;;;;13.52;9.93;;;;;;;2.88;80.51;93685.34;4226911;28;20087;-58
2022/12/15 02:47:21;;;;;;;13.18;10.02;;;;;;;3.01;80.98;93709.19;4208348;28;20377;-58
2022/12/15 02:49:51;;;;;;;13.77;10.90;;;;;;;2.99;80.27;93728.38;4222229;28;20051;-56
2022/12/15 02:52:25;;;;;;;13.80;11.00;;;;;;;2.83;80.57;93734.91;4190591;28;20075;-56
2022/12/15 02:54:45;;;;;;;15.82;11.18;;;;;;;2.58;81.91;93735.44;4213486;28;20139;-59
2022/12/15 02:57:24;;;;;;;15.57;11.63;;;;;;;2.78;82.16;93742.28;4209032;28;20063;-57
2022/12/15 02:59:33;;;;;;;15.32;11.80;;;;;;;3.05;82.28;93738.19;4210763;28;20875;-61
2022/12/15 03:01:43;;;;;;;15.88;12.85;;;;;;;3.27;82.00;93716.41;4227052;28;20105;-57
2022/12/15 03:03:46;;;;;;;16.65;12.32;;;;;;;3.37;80.31;93718.94;4208653;28;20544;-56
2022/12/15 03:05:52;;;;;;;17.40;13.25;;;;;;;3.43;79.84;93734.75;4190450;28;20133;-58
2022/12/15 03:07:53;;;;;;;16.95;12.55;;;;;;;3.56;79.94;93742.19;4204264;28;20205;-58
2022/12/15 03:09:56;;;;;;;16.95;12.25;;;;;;;3.44;78.36;93712.25;4211302;28;20052;-56
2022/12/15 03:11:58;;;;;;;15.95;11.00;;;;;;;3.39;79.23;93711.84;4193121;28;20080;-58
2022/12/15 03:14:00;;;;;;;17.15;11.75;;;;;;;3.38;79.13;93723.19;4217509;28;20514;-58
2022/12/15 03:16:02;;;;;;;16.58;11.98;;;;;;;3.12;79.57;93734.13;4210305;28;20056;-57
2022/12/15 03:18:04;;;;;;;17.00;10.90;;;;;;;3.11;80.69;93724.69;4221815;28;20408;-58
2022/12/15 03:20:06;;;;;;;13.52;10.18;;;;;;;3.11;80.50;93729.06;4218725;28;20488;-55
2022/12/15 03:22:07;;;;;;;14.35;10.38;;;;;;;3.10;79.62;93717.06;4217463;28;20083;-60
2022/12/15 03:24:09;;;;;;;15.57;10.45;;;;;;;3.05;80.05;93743.38;4224288;28;20137;-55
2022/12/15 03:26:11;;;;;;;14.05;10.10;;;;;;;3.02;80.17;93738.47;4222251;28;20151;-57
2022/12/15 03:28:12;;;;;;;15.18;10.88;;;;;;;3.14;80.92;93727.03;4223341;28;20472;-59
2022/12/15 03:30:14;;;;;;;15.77;10.63;;;;;;;3.27;80.25;93729.34;4214983;28;20117;-58
2022/12/15 03:32:16;;;;;;;15.45;11.80;;;;;;;2.86;80.41;93729.50;4222268;28;20399;-57
2022/12/15 03:34:18;;;;;;;16.45;12.05;;;;;;;2.56;81.90;93720.09;4210643;28;20048;-58
2022/12/15 03:36:21;;;;;;;16.70;12.75;;;;;;;2.65;82.26;93731.38;4205059;28;20161;-60
2022/12/15 03:38:23;;;;;;;18.58;13.35;;;;;;;2.78;82.55;93741.47;4221472;28;20059;-58
2022/12/15 03:40:24;;;;;;;18.83;13.48;;;;;;;3.01;82.48;93734.25;4216962;28;20091;-59
2022/12/15 03:44:46;;;;;;;20.63;14.90;;;;;;;3.20;81.21;93723.88;4218454;28;20044;-56
2022/12/15 03:46:48;;;;;;;21.90;16.05;;;;;;;3.31;80.86;93732.44;4209874;28;20052;-55
2022/12/15 03:48:50;;;;;;;21.30;15.27;;;;;;;3.37;80.08;93748.22;4195255;28;20118;-56
2022/12/15 03:50:51;;;;;;;21.65;16.17;;;;;;;3.31;79.58;93747.97;4196953;28;20091;-55
2022/12/15 03:52:58;;;;;;;22.08;15.25;;;;;;;3.38;80.10;93747.28;4201399;28;20071;-59
2022/12/15 03:55:01;;;;;;;21.30;15.68;;;;;;;3.38;79.68;93762.00;4206593;28;20063;-57
2022/12/15 03:57:02;;;;;;;22.80;15.32;;;;;;;3.42;79.82;93761.59;4207729;28;20130;-60
2022/12/15 03:59:04;;;;;;;21.27;14.50;;;;;;;3.51;79.39;93757.34;4193615;28;20056;-58
2022/12/15 04:01:36;;;;;;;18.38;14.05;;;;;;;3.58;79.13;93766.19;4202767;28;20071;-58
2022/12/15 04:03:38;;;;;;;21.13;14.20;;;;;;;3.53;78.65;93765.81;4205682;28;20070;-56
2022/12/15 04:05:40;;;;;;;21.33;14.63;;;;;;;3.33;78.70;93771.94;4207964;28;20056;-56
2022/12/15 04:07:42;;;;;;;17.92;12.95;;;;;;;3.34;79.42;93773.59;4208200;28;20188;-58
2022/12/15 04:09:43;;;;;;;20.95;13.25;;;;;;;3.32;79.54;93773.72;4209074;28;20462;-58
2022/12/15 04:11:45;;;;;;;20.50;14.40;;;;;;;3.43;80.02;93773.56;4178314;28;20044;-56
2022/12/15 04:13:46;;;;;;;20.60;13.68;;;;;;;3.50;78.94;93779.00;4218658;28;20052;-57
2022/12/15 04:15:48;;;;;;;19.30;12.90;;;;;;;3.62;79.28;93777.09;4205051;28;20044;-58
2022/12/15 04:17:50;;;;;;;18.45;12.82;;;;;;;3.75;78.97;93772.44;4196843;28;20549;-58
2022/12/15 04:20:09;;;;;;;19.00;12.98;;;;;;;3.83;78.38;93771.72;4208653;28;20056;-57
2022/12/15 04:22:11;;;;;;;18.73;13.88;;;;;;;3.88;77.76;93785.88;4199252;28;20261;-57
2022/12/15 05:32:17;;;;;;;26.10;17.90;;;;;;;3.81;78.36;93872.91;4215264;28;20059;-60
2022/12/15 05:34:23;;;;;;;23.33;16.20;;;;;;;3.81;78.92;93878.09;4227610;28;20146;-61
2022/12/15 05:36:24;;;;;;;19.52;14.07;;;;;;;3.88;78.60;93897.31;4208538;28;20083;-62
2022/12/15 05:38:26;;;;;;;18.73;12.65;;;;;;;3.88;78.27;93886.94;4228012;28;20086;-57
2022/12/15 05:40:28;;;;;;;18.25;13.73;;;;;;;3.89;77.71;93900.69;4205371;28;20047;-59
2022/12/15 05:42:29;;;;;;;17.98;12.40;;;;;;;3.90;77.64;93897.16;4216251;28;20056;-59
2022/12/15 05:44:31;;;;;;;17.70;13.50;;;;;;;3.86;78.13;93913.94;4200908;28;20052;-55
2022/12/15 05:46:33;;;;;;;17.30;12.48;;;;;;;3.84;78.22;93923.63;4211684;28;20052;-58
2022/12/15 05:48:34;;;;;;;18.60;13.25;;;;;;;3.83;78.49;93919.38;4211758;28;20144;-57
2022/12/15 05:50:36;;;;;;;18.10;13.00;;;;;;;3.87;77.99;93915.56;4207149;28;20104;-58
2022/12/15 05:52:38;;;;;;;18.08;12.98;;;;;;;3.83;77.47;93935.78;4195535;28;20154;-57
2022/12/15 05:54:39;;;;;;;15.95;11.75;;;;;;;3.84;77.86;93960.72;4195897;28;20074;-58
2022/12/15 05:56:41;;;;;;;15.88;12.77;;;;;;;3.77;77.80;93945.88;4205541;28;20091;-59
2022/12/15 05:58:43;;;;;;;14.10;10.30;;;;;;;3.77;78.27;93953.63;4211669;28;20092;-58
2022/12/15 06:00:46;;;;;;;14.57;10.80;;;;;;;3.77;77.48;93964.81;4209302;28;20161;-57
2022/12/15 06:02:47;;;;;;;17.52;10.75;;;;;;;3.74;77.84;93966.84;4221151;28;20461;-58
2022/12/15 06:04:50;;;;;;;14.75;10.82;;;;;;;3.73;77.74;93970.41;4206948;28;20074;-57
2022/12/15 06:06:52;;;;;;;14.00;9.38;;;;;;;3.80;78.29;93967.13;4224460;28;20048;-60
2022/12/15 06:08:53;;;;;;;17.90;11.45;;;;;;;3.85;77.71;93974.47;4218232;28;20816;-59
2022/12/15 06:10:55;;;;;;;13.90;10.23;;;;;;;3.86;78.06;93965.75;4228064;28;20511;-62
2022/12/15 06:12:57;;;;;;;13.30;9.93;;;;;;;3.90;77.17;93978.31;4227724;28;20120;-59
2022/12/15 06:14:59;;;;;;;14.38;10.50;;;;;;;3.93;77.92;93979.81;4227567;28;20047;-55
2022/12/15 06:17:00;;;;;;;13.77;9.90;;;;;;;3.95;77.72;93984.84;4227622;28;20051;-58
2022/12/15 06:19:02;;;;;;;14.75;11.07;;;;;;;3.99;77.11;93994.81;4227347;28;20494;-56
2022/12/15 06:21:07;;;;;;;16.17;11.13;;;;;;;4.04;77.51;93984.88;4212019;28;20060;-61
2022/12/15 06:23:09;;;;;;;15.05;10.30;;;;;;;4.10;77.12;93989.47;4227548;28;20469;-59
2022/12/15 06:25:10;;;;;;;15.05;10.57;;;;;;;4.14;77.29;94008.19;4227799;28;20090;-60
2022/12/15 06:27:12;;;;;;;14.75;11.35;;;;;;;4.10;76.35;94006.81;4227405;28;20524;-60
2022/12/15 06:29:14;;;;;;;15.13;10.85;;;;;;;4.14;76.76;93991.81;4219690;28;20091;-59
2022/12/15 06:31:19;;;;;;;14.68;10.98;;;;;;;4.19;77.12;93987.03;4227250;28;20110;-60
2022/12/15 06:33:21;;;;;;;12.93;9.88;;;;;;;4.25;77.12;93996.84;4228252;28;20070;-60
2022/12/15 06:35:23;;;;;;;16.15;10.98;;;;;;;4.29;76.68;93996.44;4224952;28;20077;-59
2022/12/15 06:37:25;;;;;;;13.50;10.50;;;;;;;4.31;76.25;94020.44;4213717;28;20409;-59
2022/12/15 06:39:26;;;;;;;14.93;11.20;;;;;;;4.31;76.79;94020.44;4213053;28;20060;-59
2022/12/15 06:41:29;;;;;;;14.95;10.70;;;;;;;4.38;76.72;94017.31;4223327;28;20456;-62
2022/12/15 06:43:32;;;;;;;13.18;9.70;;;;;;;4.47;76.28;94022.50;4205036;28;20045;-58
2022/12/15 06:45:34;;;;;;;13.55;10.07;;;;;;;4.53;76.27;94020.28;4207173;28;20140;-55
2022/12/15 06:47:36;;;;;;;16.48;11.63;;;;;;;4.58;75.45;94013.75;4213865;28;20464;-58
2022/12/15 06:49:38;;;;;;;17.38;10.77;;;;;;;4.64;75.96;94009.75;4225149;28;20108;-56
2022/12/15 06:51:40;;;;;;;15.40;11.65;;;;;;;4.65;75.75;94020.00;4225917;28;20067;-58
2022/12/15 06:53:49;;;;;;;15.05;10.82;;;;;;;4.65;75.37;94024.38;4226040;28;20204;-59
2022/12/15 06:55:51;;;;;;;15.50;11.70;;;;;;;4.62;75.08;94012.47;4219826;28;20048;-58
2022/12/15 06:57:53;;;;;;;15.75;11.27;;;;;;;4.69;75.78;94025.75;4210936;28;20148;-59
2022/12/15 06:59:54;;;;;;;16.67;11.02;;;;;;;4.70;75.33;94032.56;4216070;28;20126;-59
2022/12/15 07:01:56;;;;;;;18.17;10.93;;;;;;;4.73;75.09;94024.47;4201034;28;20079;-60
2022/12/15 07:04:00;;;;;;;14.77;11.05;;;;;;;4.76;74.87;94026.81;4215541;28;20562;-58
2022/12/15 07:06:02;;;;;;;;;;;;;;;4.81;75.50;94039.34;4217976;28;20074;-58
2022/12/15 07:08:05;;;;;;;17.27;11.30;;;;;;;4.85;74.80;94033.75;4218813;28;19960;-60
2022/12/15 07:10:06;;;;;;;14.77;10.68;;;;;;;4.92;75.01;94045.19;4223486;28;20047;-61
2022/12/15 07:12:09;;;;;;;13.77;10.55;;;;;;;4.99;74.66;94042.88;4215939;28;20058;-58
2022/12/15 07:14:11;;;;;;;14.15;10.75;;;;;;;5.06;74.89;94050.91;4190660;28;20060;-61
2022/12/15 07:16:12;;;;;;;13.43;10.50;;;;;;;5.12;74.37;94061.56;4218674;28;20159;-57
2022/12/15 07:18:15;;;;;;;13.85;10.52;;;;;;;5.16;73.84;94062.06;4223284;28;20116;-56
2022/12/15 07:20:17;;;;;;;18.08;10.88;;;;;;;5.10;73.91;94057.47;4224180;28;20487;-57
2022/12/15 07:22:19;;;;;;;14.27;9.35;;;;;;;5.08;73.71;94049.00;4225825;28;20687;-58
2022/12/15 07:24:21;;;;;;;14.43;10.77;;;;;;;5.12;74.26;94068.53;4209527;28;20052;-56
2022/12/15 07:26:23;;;;;;;11.38;9.10;;;;;;;5.12;73.72;94074.53;4208921;28;20089;-61
2022/12/15 07:28:25;;;;;;;12.73;9.73;;;;;;;5.11;73.74;94064.28;4222850;28;20059;-59
2022/12/15 07:30:26;;;;;;;13.27;9.82;;;;;;;5.19;73.89;94068.78;4209911;28;20432;-59
2022/12/15 07:32:32;;;;;;;13.98;9.80;;;;;;;5.24;73.62;94080.34;4206834;28;20074;-57
2022/12/15 07:34:33;;;;;;;13.00;9.43;;;;;;;5.23;73.03;94076.13;4223825;28;20055;-60
2022/12/15 07:36:35;;;;;;;14.70;10.75;;;;;;;5.22;72.69;94086.66;4218519;28;20177;-59
2022/12/15 07:38:37;;;;;;;14.48;10.93;;;;;;;5.29;73.06;94085.13;4211185;28;20079;-60
2022/12/15 07:40:38;;;;;;;16.35;10.77;;;;;;;5.31;72.99;94084.03;4205675;28;20044;-61
2022/12/15 07:42:40;;;;;;;14.80;10.55;;;;;;;5.39;72.81;94079.91;4218948;28;20517;-58
2022/12/15 07:44:42;;;;;;;14.40;10.70;;;;;;;5.43;73.51;94082.06;4208676;28;20143;-57
2022/12/15 07:46:47;;;;;;;17.05;12.07;;;;;;;5.51;72.87;94084.78;4211005;28;20060;-56
2022/12/15 07:48:49;;;;;;;17.58;12.15;;;;;;;5.55;72.57;94090.50;4208862;28;20112;-58
2022/12/15 07:50:56;;;;;;;15.23;10.63;;;;;;;5.59;72.76;94089.25;4209515;28;20139;-58
2022/12/15 07:53:08;;;;;;;14.75;10.55;;;;;;;5.60;72.94;94083.09;4210995;28;20468;-56
2022/12/15 07:55:09;;;;;;;16.85;11.80;;;;;;;5.64;73.02;94092.25;4209332;28;20449;-58
2022/12/15 07:57:11;;;;;;;18.73;12.60;;;;;;;5.64;72.83;94094.84;4212298;28;20091;-59
2022/12/15 07:59:13;;;;;;;17.40;11.75;;;;;;;5.63;72.99;94106.19;4214176;28;20056;-61
2022/12/15 08:01:15;;;;;;;17.42;11.88;;;;;;;5.74;72.49;94113.81;4215573;28;20064;-58
2022/12/15 08:03:17;;;;;;;16.88;12.40;;;;;;;5.80;72.54;94117.59;4215534;28;20110;-57
2022/12/15 08:05:19;;;;;;;16.30;12.32;;;;;;;5.75;72.31;94123.25;4199716;28;20060;-54
2022/12/15 08:07:21;;;;;;;18.98;12.63;;;;;;;5.78;72.93;94127.31;4211296;28;20058;-58
2022/12/15 08:09:23;;;;;;;20.48;12.82;;;;;;;5.82;72.74;94122.66;4218809;28;20047;-59
2022/12/15 08:11:24;;;;;;;19.10;12.93;;;;;;;5.82;72.65;94126.06;4227966;28;20147;-57
2022/12/15 08:13:26;;;;;;;19.65;12.27;;;;;;;5.86;73.22;94122.22;4217667;28;20048;-59
2022/12/15 08:15:52;;;;;;;18.70;13.18;;;;;;;5.98;73.50;94122.91;4206435;28;20052;-57
2022/12/15 08:17:54;;;;;;;20.88;12.48;;;;;;;6.01;72.79;94114.78;4220656;28;20051;-56
2022/12/15 08:19:57;;;;;;;18.40;13.10;;;;;;;6.04;73.02;94127.50;4216430;28;20048;-54
2022/12/15 08:21:59;;;;;;;18.30;12.50;;;;;;;6.06;73.08;94124.75;4204048;28;20051;-57
2022/12/15 08:24:01;;;;;;;18.02;12.32;;;;;;;6.10;72.96;94131.31;4221382;28;20161;-62
2022/12/15 08:26:11;;;;;;;17.52;12.55;;;;;;;6.10;73.20;94131.31;4223544;28;20051;-59
2022/12/15 08:28:13;;;;;;;17.55;12.38;;;;;;;6.15;72.93;94145.53;4219979;28;20052;-60
2022/12/15 08:30:15;;;;;;;18.15;12.77;;;;;;;6.16;72.88;94133.31;4214842;28;20060;-62
2022/12/15 08:32:17;;;;;;;17.55;11.35;;;;;;;6.26;73.11;94147.09;4222175;28;20173;-61
2022/12/15 08:34:19;;;;;;;19.88;11.98;;;;;;;6.29;72.51;94151.19;4216840;28;20053;-61
2022/12/15 08:36:21;;;;;;;18.92;12.07;;;;;;;6.35;72.70;94148.00;4222037;28;20051;-58
2022/12/15 08:38:22;;;;;;;17.38;12.57;;;;;;;6.43;72.08;94148.09;4202168;28;20080;-59
2022/12/15 08:40:24;;;;;;;18.23;12.88;;;;;;;6.48;72.52;94153.66;4212647;28;20063;-58
2022/12/15 08:42:26;;;;;;;19.85;12.73;;;;;;;6.51;72.83;94149.94;4228072;28;20460;-57
2022/12/15 08:44:27;;;;;;;16.67;12.40;;;;;;;6.61;72.67;94149.88;4224285;28;20101;-59
2022/12/15 08:46:35;;;;;;;19.30;12.25;;;;;;;6.66;72.78;94153.66;4211762;28;20113;-56
2022/12/15 08:48:37;;;;;;;38.13;24.55;;;;;;;6.73;72.32;94153.88;4201431;28;20064;-54
2022/12/15 08:50:45;;;;;;;34.30;23.33;;;;;;;6.81;73.07;94161.78;4198834;28;20333;-59
2022/12/15 08:52:46;;;;;;;18.48;12.75;;;;;;;6.86;72.79;94159.56;4207713;28;20144;-60
2022/12/15 08:55:10;;;;;;;21.35;14.70;;;;;;;6.90;72.42;94166.06;4212175;28;20143;-61
2022/12/15 08:57:12;;;;;;;19.70;13.05;;;;;;;6.95;72.45;94158.66;4222919;28;20067;-60
2022/12/15 08:59:14;;;;;;;18.45;13.60;;;;;;;7.01;71.94;94159.00;4198609;28;20386;-60
2022/12/15 09:01:19;;;;;;;15.95;11.77;;;;;;;7.10;72.53;94158.13;4208947;28;20500;-59
2022/12/15 09:03:24;;;;;;;20.95;13.23;;;;;;;7.10;71.26;94155.50;4214145;28;20052;-58
2022/12/15 09:05:26;;;;;;;19.38;13.52;;;;;;;7.08;71.01;94157.44;4201837;28;20059;-57
2022/12/15 09:07:27;;;;;;;35.42;21.42;;;;;;;7.10;71.69;94150.31;4205151;28;20052;-59
2022/12/15 09:09:29;;;;;;;20.77;15.05;;;;;;;7.09;71.41;94156.47;4191493;28;20056;-62
2022/12/15 09:11:31;;;;;;;17.83;12.85;;;;;;;7.11;71.59;94149.31;4221387;28;20048;-59
2022/12/15 09:13:33;;;;;;;20.23;13.50;;;;;;;7.12;71.79;94149.19;4199083;28;20052;-58
2022/12/15 09:15:35;;;;;;;17.98;13.18;;;;;;;7.02;71.61;94147.63;4208059;28;20083;-60
2022/12/15 09:17:57;;;;;;;17.80;12.95;;;;;;;7.07;71.54;94161.00;4201603;28;20066;-56
2022/12/15 09:19:58;;;;;;;16.80;12.55;;;;;;;6.98;71.53;94149.72;4211401;28;20127;-57
2022/12/15 09:22:00;;;;;;;18.25;13.43;;;;;;;6.95;72.07;94145.63;4203827;28;20191;-59
2022/12/15 09:24:02;;;;;;;19.15;12.45;;;;;;;6.97;72.06;94158.50;4196546;28;20110;-56
2022/12/15 09:26:13;;;;;;;19.67;13.43;;;;;;;6.57;72.99;94155.38;4212416;28;20063;-58
2022/12/15 09:28:14;;;;;;;16.52;11.85;;;;;;;6.51;73.43;94161.16;4205098;28;20114;-60
2022/12/15 09:30:16;;;;;;;17.02;12.02;;;;;;;6.56;73.68;94155.53;4210773;28;20097;-59
2022/12/15 09:32:18;;;;;;;17.70;12.48;;;;;;;6.76;73.78;94154.41;4211972;28;20106;-58
2022/12/15 09:34:20;;;;;;;19.55;13.32;;;;;;;6.79;72.71;94166.31;4207094;28;20631;-58
2022/12/15 09:36:22;;;;;;;19.08;13.02;;;;;;;6.57;73.14;94160.56;4195190;28;20061;-58
2022/12/15 09:38:24;;;;;;;21.02;13.77;;;;;;;6.47;74.33;94159.00;4208144;28;20056;-59
2022/12/15 09:40:26;;;;;;;17.30;12.07;;;;;;;6.36;74.04;94160.84;4212273;28;20106;-56
2022/12/15 09:42:29;;;;;;;21.45;13.23;;;;;;;6.40;74.76;94158.78;4223309;28;20051;-60
2022/12/15 09:44:31;;;;;;;19.10;13.43;;;;;;;6.70;74.88;94157.59;4204399;28;20384;-55
2022/12/15 09:47:07;;;;;;;22.52;13.85;;;;;;;6.67;74.11;94159.72;4215102;28;20075;-55
2022/12/15 09:49:20;;;;;;;21.52;13.55;;;;;;;6.83;74.60;94164.22;4181223;28;20489;-53
2022/12/15 09:51:38;;;;;;;20.45;13.50;;;;;;;6.99;74.11;94164.38;4214250;28;20089;-59
2022/12/15 09:53:40;;;;;;;20.77;13.30;;;;;;;7.19;73.61;94165.03;4196702;28;20357;-58
2022/12/15 09:56:04;;;;;;;18.42;12.45;;;;;;;7.42;73.12;94174.94;4202933;28;20052;-60
2022/12/15 09:58:34;;;;;;;19.83;13.50;;;;;;;7.37;72.61;94175.41;4199064;28;20379;-60
2022/12/15 10:00:51;;;;;;;23.67;13.50;;;;;;;7.58;72.57;94159.41;4202298;28;20048;-57
2022/12/15 10:03:11;;;;;;;17.58;12.80;;;;;;;7.53;71.31;94157.28;4214197;28;20424;-57
2022/12/15 10:05:27;;;;;;;19.55;12.68;;;;;;;7.38;72.19;94143.19;4203491;28;20066;-55
2022/12/15 10:07:49;;;;;;;19.73;13.50;;;;;;;7.13;72.44;94155.19;4206566;28;20059;-59
2022/12/15 10:10:23;;;;;;;19.17;13.20;;;;;;;7.26;73.81;94157.41;4187757;28;20045;-59
2022/12/15 10:12:25;;;;;;;;;;;;;;;7.33;73.11;94161.03;4190877;28;20060;-57
2022/12/15 10:14:39;;;;;;;21.50;14.98;;;;;;;7.05;73.50;94155.13;4196081;28;19974;-56
2022/12/15 10:17:09;;;;;;;24.90;17.23;;;;;;;7.29;73.91;94154.50;4203159;28;20048;-56
2022/12/15 10:19:15;;;;;;;27.88;18.58;;;;;;;7.00;74.10;94157.38;4211222;28;20063;-57
2022/12/15 10:21:16;;;;;;;28.45;18.65;;;;;;;7.06;74.80;94164.59;4187926;28;20068;-56
2022/12/15 10:23:18;;;;;;;33.80;22.08;;;;;;;7.28;75.53;94169.31;4198275;28;20109;-59
2022/12/15 10:25:23;;;;;;;29.50;21.15;;;;;;;7.56;75.06;94171.78;4207992;28;20056;-56
2022/12/15 10:28:36;;;;;;;29.42;20.40;;;;;;;7.62;73.56;94173.78;4198520;28;20074;-57
2022/12/15 10:30:51;;;;;;;39.60;25.95;;;;;;;7.38;73.43;94175.25;4172729;28;20056;-55
2022/12/15 10:33:01;;;;;;;39.15;26.35;;;;;;;6.90;75.10;94178.28;4195105;28;20072;-58
2022/12/15 10:35:12;;;;;;;38.22;28.77;;;;;;;6.93;75.79;94175.41;4198739;28;20813;-59
2022/12/15 10:37:17;;;;;;;40.58;28.38;;;;;;;6.90;76.03;94175.69;4179907;28;20097;-60
2022/12/15 10:39:19;;;;;;;50.55;30.75;;;;;;;7.02;75.65;94171.06;4201756;28;20056;-57
2022/12/15 10:41:23;;;;;;;44.05;30.92;;;;;;;7.13;75.25;94181.25;4217153;28;20054;-58
2022/12/15 10:43:35;;;;;;;44.90;30.52;;;;;;;7.20;75.52;94171.03;4209418;28;20185;-56
2022/12/15 10:45:38;;;;;;;44.67;30.00;;;;;;;7.23;74.66;94170.72;4198816;28;20453;-57
2022/12/15 10:47:39;;;;;;;47.08;32.53;;;;;;;7.20;74.40;94169.25;4216955;28;20044;-56
2022/12/15 10:49:41;;;;;;;45.05;31.13;;;;;;;7.25;74.89;94166.19;4201866;28;20087;-54
2022/12/15 10:51:56;;;;;;;51.15;33.47;;;;;;;7.28;75.02;94171.09;4204894;28;20060;-59
2022/12/15 10:54:08;;;;;;;46.63;30.77;;;;;;;7.28;75.20;94171.91;4223337;28;20052;-57
2022/12/15 10:56:28;;;;;;;43.33;31.00;;;;;;;7.37;75.32;94184.03;4220043;28;20079;-58
2022/12/15 10:58:53;;;;;;;54.42;34.90;;;;;;;7.52;75.52;94173.88;4222151;28;20519;-57
2022/12/15 11:01:14;;;;;;;32.20;22.80;;;;;;;7.70;75.31;94176.44;4217994;28;20320;-59
2022/12/15 11:03:22;;;;;;;31.85;21.20;;;;;;;7.83;74.14;94173.41;4224930;28;20550;-55
2022/12/15 11:05:25;;;;;;;31.02;21.85;;;;;;;7.95;73.75;94185.19;4201742;28;20138;-57
2022/12/15 11:07:36;;;;;;;30.63;21.80;;;;;;;8.01;73.33;94181.16;4226628;28;20062;-56
2022/12/15 11:09:38;;;;;;;33.90;21.88;;;;;;;8.08;72.41;94174.31;4207475;28;20101;-59
2022/12/15 11:14:15;;;;;;;32.88;22.67;;;;;;;8.03;72.78;94176.59;4195257;28;20057;-57
2022/12/15 11:16:18;;;;;;;34.05;23.38;;;;;;;7.84;72.36;94169.00;4220611;28;20129;-57
2022/12/15 11:18:37;;;;;;;33.58;24.73;;;;;;;7.72;72.02;94171.06;4207119;28;20056;-55
2022/12/15 11:20:46;;;;;;;33.38;22.77;;;;;;;7.77;73.97;94174.03;4207545;28;20087;-57
2022/12/15 11:22:52;;;;;;;36.03;24.02;;;;;;;7.78;73.87;94179.06;4201963;28;20248;-56
2022/12/15 11:25:00;;;;;;;34.15;23.85;;;;;;;7.90;73.57;94176.22;4209290;28;20115;-57
2022/12/15 11:27:32;;;;;;;35.65;23.73;;;;;;;8.03;73.69;94181.81;4184103;28;20114;-57
2022/12/15 11:29:52;;;;;;;31.75;21.73;;;;;;;8.13;73.45;94168.63;4189302;28;20075;-57
2022/12/15 11:31:55;;;;;;;34.72;23.90;;;;;;;8.13;73.05;94171.25;4206781;28;20052;-57
2022/12/15 11:34:02;;;;;;;32.72;23.10;;;;;;;8.23;72.90;94171.94;4196828;28;20048;-57
2022/12/15 11:36:13;;;;;;;38.20;23.00;;;;;;;8.26;72.25;94179.47;4208486;28;20109;-61
2022/12/15 11:38:34;;;;;;;34.88;24.48;;;;;;;8.24;71.89;94181.41;4180205;28;20132;-59
2022/12/15 11:40:39;;;;;;;34.60;23.90;;;;;;;8.24;72.26;94180.59;4197451;28;20044;-58
2022/12/15 11:42:51;;;;;;;33.10;22.40;;;;;;;8.18;72.72;94184.66;4200864;28;20511;-59
2022/12/15 11:44:58;;;;;;;38.60;24.50;;;;;;;8.21;72.33;94187.75;4226511;28;20464;-55
2022/12/15 11:47:14;;;;;;;34.55;23.58;;;;;;;8.30;72.10;94187.78;4226500;28;20112;-55
2022/12/15 11:49:28;;;;;;;36.05;23.10;;;;;;;8.32;71.68;94185.84;4174930;28;20077;-56
2022/12/15 11:51:57;;;;;;;36.33;24.15;;;;;;;8.18;71.67;94176.84;4184770;28;20087;-56
2022/12/15 11:54:03;;;;;;;36.28;25.02;;;;;;;8.14;72.55;94191.16;4197897;28;20047;-58
2022/12/15 11:56:45;;;;;;;34.42;23.65;;;;;;;8.06;72.95;94196.34;4210202;28;20495;-54
2022/12/15 11:58:52;;;;;;;39.47;25.77;;;;;;;7.93;73.08;94194.16;4175985;28;20382;-60
2022/12/15 12:01:02;;;;;;;38.83;25.98;;;;;;;7.83;73.51;94198.66;4184060;28;20084;-60
2022/12/15 12:03:13;;;;;;;39.38;26.00;;;;;;;7.73;74.20;94199.59;4210816;28;20055;-58
2022/12/15 12:05:52;;;;;;;38.13;25.85;;;;;;;7.88;74.07;94204.25;4196899;28;20388;-56
2022/12/15 12:08:22;;;;;;;40.00;26.83;;;;;;;8.05;73.82;94198.13;4197283;28;20143;-58
2022/12/15 12:10:30;;;;;;;37.22;25.58;;;;;;;8.26;73.37;94199.50;4182932;28;20144;-60